sensor_id;sensor_type;location;lat;lon;timestamp;temperature;humidity
20345;DHT22;10330;48.816;9.278;2023-09-12T00:00:02;21.00;99.90
20345;DHT22;10330;48.816;9.278;2023-09-12T00:02:38;21.00;99.90
20345;DHT22;10330;48.816;9.278;2023-09-12T00:05:05;21.00;99.90
20345;DHT22;10330;48.816;9.278;2023-09-12T00:07:31;20.90;99.90
20345;DHT22;10330;48.816;9.278;2023-09-12T00:09:57;20.80;99.90
20345;DHT22;10330;48.816;9.278;2023-09-12T00:12:24;20.70;99.90
20345;DHT22;10330;48.816;9.278;2023-09-12T00:14:53;20.80;99.90
20345;DHT22;10330;48.816;9.278;2023-09-12T00:17:19;20.80;99.90
20345;DHT22;10330;48.816;9.278;2023-09-12T00:19:46;20.70;99.90
20345;DHT22;10330;48.816;9.278;2023-09-12T00:22:12;20.70;99.90
20345;DHT22;10330;48.816;9.278;2023-09-12T00:24:38;20.70;99.90
20345;DHT22;10330;48.816;9.278;2023-09-12T00:27:05;20.70;99.90
20345;DHT22;10330;48.816;9.278;2023-09-12T00:29:32;20.60;99.90
20345;DHT22;10330;48.816;9.278;2023-09-12T00:31:58;20.60;99.90
20345;DHT22;10330;48.816;9.278;2023-09-12T00:34:25;20.60;99.90
20345;DHT22;10330;48.816;9.278;2023-09-12T00:36:51;20.60;99.90
20345;DHT22;10330;48.816;9.278;2023-09-12T00:39:17;20.50;99.90
20345;DHT22;10330;48.816;9.278;2023-09-12T00:41:44;20.40;99.90
20345;DHT22;10330;48.816;9.278;2023-09-12T00:44:10;20.40;99.90
20345;DHT22;10330;48.816;9.278;2023-09-12T00:46:37;20.40;99.90
20345;DHT22;10330;48.816;9.278;2023-09-12T00:49:05;20.30;99.90
20345;DHT22;10330;48.816;9.278;2023-09-12T00:51:34;20.30;99.90
20345;DHT22;10330;48.816;9.278;2023-09-12T00:54:01;20.40;99.90
20345;DHT22;10330;48.816;9.278;2023-09-12T00:56:27;20.30;99.90
20345;DHT22;10330;48.816;9.278;2023-09-12T00:58:55;20.30;99.90
20345;DHT22;10330;48.816;9.278;2023-09-12T01:01:21;20.20;99.90
20345;DHT22;10330;48.816;9.278;2023-09-12T01:03:49;20.20;99.90
20345;DHT22;10330;48.816;9.278;2023-09-12T01:06:18;20.30;99.90
20345;DHT22;10330;48.816;9.278;2023-09-12T01:08:46;20.40;99.90
20345;DHT22;10330;48.816;9.278;2023-09-12T01:11:14;20.30;99.90
20345;DHT22;10330;48.816;9.278;2023-09-12T01:13:40;20.40;99.90
20345;DHT22;10330;48.816;9.278;2023-09-12T01:16:06;20.40;99.90
20345;DHT22;10330;48.816;9.278;2023-09-12T01:27:25;20.20;99.90
20345;DHT22;10330;48.816;9.278;2023-09-12T01:30:00;20.20;99.90
20345;DHT22;10330;48.816;9.278;2023-09-12T01:32:27;20.10;99.90
20345;DHT22;10330;48.816;9.278;2023-09-12T01:34:55;20.10;99.90
20345;DHT22;10330;48.816;9.278;2023-09-12T01:37:21;20.10;99.90
20345;DHT22;10330;48.816;9.278;2023-09-12T01:39:47;20.00;99.90
20345;DHT22;10330;48.816;9.278;2023-09-12T01:42:16;19.90;99.90
20345;DHT22;10330;48.816;9.278;2023-09-12T01:44:44;19.80;99.90
20345;DHT22;10330;48.816;9.278;2023-09-12T01:47:11;19.80;99.90
20345;DHT22;10330;48.816;9.278;2023-09-12T01:49:41;19.90;99.90
20345;DHT22;10330;48.816;9.278;2023-09-12T01:52:09;19.90;99.90
20345;DHT22;10330;48.816;9.278;2023-09-12T01:54:36;19.90;99.90
20345;DHT22;10330;48.816;9.278;2023-09-12T01:57:03;19.80;99.90
20345;DHT22;10330;48.816;9.278;2023-09-12T01:59:39;19.80;99.90
20345;DHT22;10330;48.816;9.278;2023-09-12T02:02:08;19.70;99.90
20345;DHT22;10330;48.816;9.278;2023-09-12T02:04:34;19.80;99.90
20345;DHT22;10330;48.816;9.278;2023-09-12T02:07:00;19.80;99.90
20345;DHT22;10330;48.816;9.278;2023-09-12T02:09:27;19.70;99.90
20345;DHT22;10330;48.816;9.278;2023-09-12T02:11:56;19.70;99.90
20345;DHT22;10330;48.816;9.278;2023-09-12T02:14:25;19.60;99.90
20345;DHT22;10330;48.816;9.278;2023-09-12T02:16:52;19.70;99.90
20345;DHT22;10330;48.816;9.278;2023-09-12T02:19:20;19.70;99.90
20345;DHT22;10330;48.816;9.278;2023-09-12T02:21:46;19.70;99.90
20345;DHT22;10330;48.816;9.278;2023-09-12T02:24:15;19.60;99.90
20345;DHT22;10330;48.816;9.278;2023-09-12T02:26:44;19.70;99.90
20345;DHT22;10330;48.816;9.278;2023-09-12T02:29:10;19.80;99.90
20345;DHT22;10330;48.816;9.278;2023-09-12T02:31:36;19.70;99.90
20345;DHT22;10330;48.816;9.278;2023-09-12T02:34:03;19.60;99.90
20345;DHT22;10330;48.816;9.278;2023-09-12T02:36:29;19.60;99.90
20345;DHT22;10330;48.816;9.278;2023-09-12T02:38:55;19.50;99.90
20345;DHT22;10330;48.816;9.278;2023-09-12T02:41:21;19.50;99.90
20345;DHT22;10330;48.816;9.278;2023-09-12T02:43:48;19.50;99.90
20345;DHT22;10330;48.816;9.278;2023-09-12T02:46:14;19.50;99.90
20345;DHT22;10330;48.816;9.278;2023-09-12T02:48:41;19.60;99.90
20345;DHT22;10330;48.816;9.278;2023-09-12T02:51:07;19.30;99.90
20345;DHT22;10330;48.816;9.278;2023-09-12T02:53:33;19.30;99.90
20345;DHT22;10330;48.816;9.278;2023-09-12T02:56:00;19.30;99.90
20345;DHT22;10330;48.816;9.278;2023-09-12T02:58:26;19.40;99.90
20345;DHT22;10330;48.816;9.278;2023-09-12T03:00:55;19.40;99.90
20345;DHT22;10330;48.816;9.278;2023-09-12T03:03:21;19.40;99.90
20345;DHT22;10330;48.816;9.278;2023-09-12T03:05:56;19.30;99.90
20345;DHT22;10330;48.816;9.278;2023-09-12T03:08:22;19.30;99.90
20345;DHT22;10330;48.816;9.278;2023-09-12T03:10:56;19.30;99.90
20345;DHT22;10330;48.816;9.278;2023-09-12T03:13:25;19.20;99.90
20345;DHT22;10330;48.816;9.278;2023-09-12T03:15:52;19.30;99.90
20345;DHT22;10330;48.816;9.278;2023-09-12T03:18:19;19.20;99.90
20345;DHT22;10330;48.816;9.278;2023-09-12T03:20:45;19.10;99.90
20345;DHT22;10330;48.816;9.278;2023-09-12T03:23:11;19.10;99.90
20345;DHT22;10330;48.816;9.278;2023-09-12T03:25:38;19.10;99.90
20345;DHT22;10330;48.816;9.278;2023-09-12T03:28:05;19.00;99.90
20345;DHT22;10330;48.816;9.278;2023-09-12T03:30:36;18.90;99.90
20345;DHT22;10330;48.816;9.278;2023-09-12T03:33:04;19.00;99.90
20345;DHT22;10330;48.816;9.278;2023-09-12T03:35:31;19.00;99.90
20345;DHT22;10330;48.816;9.278;2023-09-12T03:37:58;19.00;99.90
20345;DHT22;10330;48.816;9.278;2023-09-12T03:40:24;18.90;99.90
20345;DHT22;10330;48.816;9.278;2023-09-12T03:42:50;18.90;99.90
20345;DHT22;10330;48.816;9.278;2023-09-12T03:45:17;18.90;99.90
20345;DHT22;10330;48.816;9.278;2023-09-12T03:47:43;18.80;99.90
20345;DHT22;10330;48.816;9.278;2023-09-12T03:50:13;18.80;99.90
20345;DHT22;10330;48.816;9.278;2023-09-12T03:52:40;18.80;99.90
20345;DHT22;10330;48.816;9.278;2023-09-12T03:55:07;18.80;99.90
20345;DHT22;10330;48.816;9.278;2023-09-12T03:57:34;18.90;99.90
20345;DHT22;10330;48.816;9.278;2023-09-12T04:00:00;19.10;99.90
20345;DHT22;10330;48.816;9.278;2023-09-12T04:02:27;19.20;99.90
20345;DHT22;10330;48.816;9.278;2023-09-12T04:04:53;19.10;99.90
20345;DHT22;10330;48.816;9.278;2023-09-12T04:07:19;19.10;99.90
20345;DHT22;10330;48.816;9.278;2023-09-12T04:09:45;19.10;99.90
20345;DHT22;10330;48.816;9.278;2023-09-12T04:12:12;18.90;99.90
20345;DHT22;10330;48.816;9.278;2023-09-12T04:14:38;19.00;99.90
20345;DHT22;10330;48.816;9.278;2023-09-12T04:17:04;18.90;99.90
20345;DHT22;10330;48.816;9.278;2023-09-12T04:19:31;18.70;99.90
20345;DHT22;10330;48.816;9.278;2023-09-12T04:21:58;18.70;99.90
20345;DHT22;10330;48.816;9.278;2023-09-12T04:24:24;18.80;99.90
20345;DHT22;10330;48.816;9.278;2023-09-12T04:26:50;18.70;99.90
20345;DHT22;10330;48.816;9.278;2023-09-12T04:29:16;18.80;99.90
20345;DHT22;10330;48.816;9.278;2023-09-12T04:31:43;18.70;99.90
20345;DHT22;10330;48.816;9.278;2023-09-12T04:34:09;18.70;99.90
20345;DHT22;10330;48.816;9.278;2023-09-12T04:36:36;18.80;99.90
20345;DHT22;10330;48.816;9.278;2023-09-12T04:39:02;18.80;99.90
20345;DHT22;10330;48.816;9.278;2023-09-12T04:41:29;18.90;99.90
20345;DHT22;10330;48.816;9.278;2023-09-12T04:43:55;18.90;99.90
20345;DHT22;10330;48.816;9.278;2023-09-12T04:46:21;18.80;99.90
20345;DHT22;10330;48.816;9.278;2023-09-12T04:48:47;18.90;99.90
20345;DHT22;10330;48.816;9.278;2023-09-12T04:51:14;18.90;99.90
20345;DHT22;10330;48.816;9.278;2023-09-12T04:53:40;18.90;99.90
20345;DHT22;10330;48.816;9.278;2023-09-12T04:56:06;19.00;99.90
20345;DHT22;10330;48.816;9.278;2023-09-12T04:58:36;18.90;99.90
20345;DHT22;10330;48.816;9.278;2023-09-12T05:01:02;18.90;99.90
20345;DHT22;10330;48.816;9.278;2023-09-12T05:03:28;18.90;99.90
20345;DHT22;10330;48.816;9.278;2023-09-12T05:05:55;18.90;99.90
20345;DHT22;10330;48.816;9.278;2023-09-12T05:08:21;18.90;99.90
20345;DHT22;10330;48.816;9.278;2023-09-12T05:10:47;18.90;99.90
20345;DHT22;10330;48.816;9.278;2023-09-12T05:13:13;19.00;99.90
20345;DHT22;10330;48.816;9.278;2023-09-12T05:15:41;19.00;99.90
20345;DHT22;10330;48.816;9.278;2023-09-12T05:18:07;19.10;99.90
20345;DHT22;10330;48.816;9.278;2023-09-12T05:20:34;19.00;99.90
20345;DHT22;10330;48.816;9.278;2023-09-12T05:23:00;19.10;99.90
20345;DHT22;10330;48.816;9.278;2023-09-12T05:25:26;19.00;99.90
20345;DHT22;10330;48.816;9.278;2023-09-12T05:27:54;19.00;99.90
20345;DHT22;10330;48.816;9.278;2023-09-12T05:30:22;19.00;99.90
20345;DHT22;10330;48.816;9.278;2023-09-12T05:32:48;19.00;99.90
20345;DHT22;10330;48.816;9.278;2023-09-12T05:35:15;19.10;99.90
20345;DHT22;10330;48.816;9.278;2023-09-12T05:37:42;19.20;99.90
20345;DHT22;10330;48.816;9.278;2023-09-12T05:40:17;19.20;99.90
20345;DHT22;10330;48.816;9.278;2023-09-12T05:42:43;19.30;99.90
20345;DHT22;10330;48.816;9.278;2023-09-12T05:45:12;19.40;99.90
20345;DHT22;10330;48.816;9.278;2023-09-12T05:47:38;19.60;99.90
20345;DHT22;10330;48.816;9.278;2023-09-12T05:50:05;19.50;99.90
20345;DHT22;10330;48.816;9.278;2023-09-12T05:52:33;19.60;99.90
20345;DHT22;10330;48.816;9.278;2023-09-12T05:55:00;19.60;99.90
20345;DHT22;10330;48.816;9.278;2023-09-12T05:57:27;19.70;99.90
20345;DHT22;10330;48.816;9.278;2023-09-12T05:59:53;19.70;99.90
20345;DHT22;10330;48.816;9.278;2023-09-12T06:02:19;19.70;99.90
20345;DHT22;10330;48.816;9.278;2023-09-12T06:04:45;19.70;99.90
20345;DHT22;10330;48.816;9.278;2023-09-12T06:07:12;19.80;99.90
20345;DHT22;10330;48.816;9.278;2023-09-12T06:09:38;19.90;99.90
20345;DHT22;10330;48.816;9.278;2023-09-12T06:12:05;20.00;99.90
20345;DHT22;10330;48.816;9.278;2023-09-12T06:14:31;20.10;99.90
20345;DHT22;10330;48.816;9.278;2023-09-12T06:16:57;20.10;99.90
20345;DHT22;10330;48.816;9.278;2023-09-12T06:19:23;20.20;99.90
20345;DHT22;10330;48.816;9.278;2023-09-12T06:21:50;20.20;99.90
20345;DHT22;10330;48.816;9.278;2023-09-12T06:24:19;20.30;99.90
20345;DHT22;10330;48.816;9.278;2023-09-12T06:26:45;20.30;99.90
20345;DHT22;10330;48.816;9.278;2023-09-12T06:29:12;20.50;99.90
20345;DHT22;10330;48.816;9.278;2023-09-12T06:31:40;20.50;99.90
20345;DHT22;10330;48.816;9.278;2023-09-12T06:34:09;20.50;99.90
20345;DHT22;10330;48.816;9.278;2023-09-12T06:36:36;20.60;99.90
20345;DHT22;10330;48.816;9.278;2023-09-12T06:39:03;20.70;99.90
20345;DHT22;10330;48.816;9.278;2023-09-12T06:41:31;20.70;99.90
20345;DHT22;10330;48.816;9.278;2023-09-12T06:43:57;20.90;99.90
20345;DHT22;10330;48.816;9.278;2023-09-12T06:46:24;20.90;99.90
20345;DHT22;10330;48.816;9.278;2023-09-12T06:48:51;21.00;99.90
20345;DHT22;10330;48.816;9.278;2023-09-12T06:51:17;20.90;99.90
20345;DHT22;10330;48.816;9.278;2023-09-12T06:53:44;21.10;99.90
20345;DHT22;10330;48.816;9.278;2023-09-12T06:56:10;21.10;99.90
20345;DHT22;10330;48.816;9.278;2023-09-12T06:58:36;21.20;99.90
20345;DHT22;10330;48.816;9.278;2023-09-12T07:01:06;21.20;99.90
20345;DHT22;10330;48.816;9.278;2023-09-12T07:03:34;21.20;99.90
20345;DHT22;10330;48.816;9.278;2023-09-12T07:06:01;21.40;99.90
20345;DHT22;10330;48.816;9.278;2023-09-12T07:08:29;21.40;99.90
20345;DHT22;10330;48.816;9.278;2023-09-12T07:10:56;21.60;99.90
20345;DHT22;10330;48.816;9.278;2023-09-12T07:13:23;21.60;99.90
20345;DHT22;10330;48.816;9.278;2023-09-12T07:15:50;21.70;99.90
20345;DHT22;10330;48.816;9.278;2023-09-12T07:18:17;21.80;99.90
20345;DHT22;10330;48.816;9.278;2023-09-12T07:20:44;21.90;99.90
20345;DHT22;10330;48.816;9.278;2023-09-12T07:23:11;22.00;99.90
20345;DHT22;10330;48.816;9.278;2023-09-12T07:25:40;22.10;99.90
20345;DHT22;10330;48.816;9.278;2023-09-12T07:28:07;22.10;99.90
20345;DHT22;10330;48.816;9.278;2023-09-12T07:30:34;22.20;99.90
20345;DHT22;10330;48.816;9.278;2023-09-12T07:33:00;22.30;99.90
20345;DHT22;10330;48.816;9.278;2023-09-12T07:35:26;22.50;99.90
20345;DHT22;10330;48.816;9.278;2023-09-12T07:37:52;22.50;99.90
20345;DHT22;10330;48.816;9.278;2023-09-12T07:40:19;22.60;99.90
20345;DHT22;10330;48.816;9.278;2023-09-12T07:42:47;22.60;99.90
20345;DHT22;10330;48.816;9.278;2023-09-12T07:45:14;22.60;99.90
20345;DHT22;10330;48.816;9.278;2023-09-12T07:47:40;22.50;99.90
20345;DHT22;10330;48.816;9.278;2023-09-12T07:50:12;22.50;99.90
20345;DHT22;10330;48.816;9.278;2023-09-12T07:52:41;22.60;99.90
20345;DHT22;10330;48.816;9.278;2023-09-12T07:55:08;22.70;99.90
20345;DHT22;10330;48.816;9.278;2023-09-12T07:57:34;22.70;99.90
20345;DHT22;10330;48.816;9.278;2023-09-12T08:00:04;22.80;99.90
20345;DHT22;10330;48.816;9.278;2023-09-12T08:02:39;22.90;99.90
20345;DHT22;10330;48.816;9.278;2023-09-12T08:05:06;23.00;99.90
20345;DHT22;10330;48.816;9.278;2023-09-12T08:07:32;23.10;99.90
20345;DHT22;10330;48.816;9.278;2023-09-12T08:09:59;23.20;99.90
20345;DHT22;10330;48.816;9.278;2023-09-12T08:12:27;23.40;99.90
20345;DHT22;10330;48.816;9.278;2023-09-12T08:14:56;23.50;99.90
20345;DHT22;10330;48.816;9.278;2023-09-12T08:17:26;23.70;99.90
20345;DHT22;10330;48.816;9.278;2023-09-12T08:19:53;23.90;99.90
20345;DHT22;10330;48.816;9.278;2023-09-12T08:22:19;23.90;99.90
20345;DHT22;10330;48.816;9.278;2023-09-12T08:24:45;24.00;99.90
20345;DHT22;10330;48.816;9.278;2023-09-12T08:27:13;24.10;99.90
20345;DHT22;10330;48.816;9.278;2023-09-12T08:29:39;24.20;99.90
20345;DHT22;10330;48.816;9.278;2023-09-12T08:32:07;24.30;99.90
20345;DHT22;10330;48.816;9.278;2023-09-12T08:34:33;24.30;99.90
20345;DHT22;10330;48.816;9.278;2023-09-12T08:36:59;24.50;99.90
20345;DHT22;10330;48.816;9.278;2023-09-12T08:39:27;24.60;99.90
20345;DHT22;10330;48.816;9.278;2023-09-12T08:41:54;24.70;99.90
20345;DHT22;10330;48.816;9.278;2023-09-12T08:44:21;24.80;99.90
20345;DHT22;10330;48.816;9.278;2023-09-12T08:46:48;24.80;99.90
20345;DHT22;10330;48.816;9.278;2023-09-12T08:49:14;24.80;99.90
20345;DHT22;10330;48.816;9.278;2023-09-12T08:51:41;24.80;99.90
20345;DHT22;10330;48.816;9.278;2023-09-12T08:54:08;24.80;99.90
20345;DHT22;10330;48.816;9.278;2023-09-12T08:56:37;24.70;99.90
20345;DHT22;10330;48.816;9.278;2023-09-12T08:59:05;24.70;99.90
20345;DHT22;10330;48.816;9.278;2023-09-12T09:01:32;24.80;99.90
20345;DHT22;10330;48.816;9.278;2023-09-12T09:04:01;24.90;99.90
20345;DHT22;10330;48.816;9.278;2023-09-12T09:06:30;25.00;99.90
20345;DHT22;10330;48.816;9.278;2023-09-12T09:08:58;25.00;99.90
20345;DHT22;10330;48.816;9.278;2023-09-12T09:11:25;25.10;99.90
20345;DHT22;10330;48.816;9.278;2023-09-12T09:13:54;25.10;99.90
20345;DHT22;10330;48.816;9.278;2023-09-12T09:16:21;25.20;99.90
20345;DHT22;10330;48.816;9.278;2023-09-12T09:18:56;25.30;99.90
20345;DHT22;10330;48.816;9.278;2023-09-12T09:21:25;25.40;99.90
20345;DHT22;10330;48.816;9.278;2023-09-12T09:23:53;25.50;99.90
20345;DHT22;10330;48.816;9.278;2023-09-12T09:26:20;25.50;99.90
20345;DHT22;10330;48.816;9.278;2023-09-12T09:29:03;25.40;99.90
20345;DHT22;10330;48.816;9.278;2023-09-12T09:31:30;25.50;99.90
20345;DHT22;10330;48.816;9.278;2023-09-12T09:33:59;25.50;99.90
20345;DHT22;10330;48.816;9.278;2023-09-12T09:36:26;25.50;99.90
20345;DHT22;10330;48.816;9.278;2023-09-12T09:38:52;25.60;99.90
20345;DHT22;10330;48.816;9.278;2023-09-12T09:41:20;25.70;99.90
20345;DHT22;10330;48.816;9.278;2023-09-12T09:43:51;25.80;99.90
20345;DHT22;10330;48.816;9.278;2023-09-12T09:46:18;25.80;99.90
20345;DHT22;10330;48.816;9.278;2023-09-12T09:48:51;25.90;99.90
20345;DHT22;10330;48.816;9.278;2023-09-12T09:51:18;26.00;99.90
20345;DHT22;10330;48.816;9.278;2023-09-12T09:53:44;26.10;99.90
20345;DHT22;10330;48.816;9.278;2023-09-12T09:56:12;26.20;99.90
20345;DHT22;10330;48.816;9.278;2023-09-12T09:58:46;26.20;99.90
20345;DHT22;10330;48.816;9.278;2023-09-12T10:01:16;26.30;99.90
20345;DHT22;10330;48.816;9.278;2023-09-12T10:03:45;26.40;99.90
20345;DHT22;10330;48.816;9.278;2023-09-12T10:06:12;26.40;99.90
20345;DHT22;10330;48.816;9.278;2023-09-12T10:08:40;26.50;99.90
20345;DHT22;10330;48.816;9.278;2023-09-12T10:11:07;26.60;99.90
20345;DHT22;10330;48.816;9.278;2023-09-12T10:13:35;26.70;99.90
20345;DHT22;10330;48.816;9.278;2023-09-12T10:16:04;26.70;99.90
20345;DHT22;10330;48.816;9.278;2023-09-12T10:18:37;26.70;99.90
20345;DHT22;10330;48.816;9.278;2023-09-12T10:21:11;26.70;99.90
20345;DHT22;10330;48.816;9.278;2023-09-12T10:23:44;26.80;99.90
20345;DHT22;10330;48.816;9.278;2023-09-12T10:26:12;27.00;99.90
20345;DHT22;10330;48.816;9.278;2023-09-12T10:28:41;27.20;99.90
20345;DHT22;10330;48.816;9.278;2023-09-12T10:31:08;27.30;99.90
20345;DHT22;10330;48.816;9.278;2023-09-12T10:33:36;27.40;99.90
20345;DHT22;10330;48.816;9.278;2023-09-12T10:36:03;27.50;99.90
20345;DHT22;10330;48.816;9.278;2023-09-12T10:38:33;27.50;99.90
20345;DHT22;10330;48.816;9.278;2023-09-12T10:41:02;27.70;99.90
20345;DHT22;10330;48.816;9.278;2023-09-12T10:43:29;27.70;99.90
20345;DHT22;10330;48.816;9.278;2023-09-12T10:46:01;27.80;99.90
20345;DHT22;10330;48.816;9.278;2023-09-12T10:48:28;28.10;99.90
20345;DHT22;10330;48.816;9.278;2023-09-12T10:50:58;28.10;99.90
20345;DHT22;10330;48.816;9.278;2023-09-12T10:53:26;28.30;99.90
20345;DHT22;10330;48.816;9.278;2023-09-12T10:56:22;28.40;99.90
20345;DHT22;10330;48.816;9.278;2023-09-12T11:01:34;28.60;99.90
20345;DHT22;10330;48.816;9.278;2023-09-12T11:06:47;29.00;99.90
20345;DHT22;10330;48.816;9.278;2023-09-12T11:09:23;29.10;99.90
20345;DHT22;10330;48.816;9.278;2023-09-12T11:12:03;29.50;99.90
20345;DHT22;10330;48.816;9.278;2023-09-12T11:14:29;29.90;99.90
20345;DHT22;10330;48.816;9.278;2023-09-12T11:19:47;30.60;99.90
20345;DHT22;10330;48.816;9.278;2023-09-12T11:22:24;30.80;99.90
20345;DHT22;10330;48.816;9.278;2023-09-12T11:24:50;30.70;99.90
20345;DHT22;10330;48.816;9.278;2023-09-12T11:27:17;30.90;99.90
20345;DHT22;10330;48.816;9.278;2023-09-12T11:29:43;31.20;99.90
20345;DHT22;10330;48.816;9.278;2023-09-12T11:32:09;31.50;99.90
20345;DHT22;10330;48.816;9.278;2023-09-12T11:34:45;32.00;99.90
20345;DHT22;10330;48.816;9.278;2023-09-12T11:37:22;32.40;99.90
20345;DHT22;10330;48.816;9.278;2023-09-12T11:39:49;32.50;99.90
20345;DHT22;10330;48.816;9.278;2023-09-12T11:42:16;32.80;99.90
20345;DHT22;10330;48.816;9.278;2023-09-12T11:44:43;32.90;99.90
20345;DHT22;10330;48.816;9.278;2023-09-12T11:47:11;32.70;99.90
20345;DHT22;10330;48.816;9.278;2023-09-12T11:49:40;32.80;99.90
20345;DHT22;10330;48.816;9.278;2023-09-12T11:52:14;32.90;99.90
20345;DHT22;10330;48.816;9.278;2023-09-12T11:54:43;33.20;99.90
20345;DHT22;10330;48.816;9.278;2023-09-12T11:57:11;33.60;99.90
20345;DHT22;10330;48.816;9.278;2023-09-12T11:59:39;33.60;99.90
20345;DHT22;10330;48.816;9.278;2023-09-12T12:02:09;34.10;99.90
20345;DHT22;10330;48.816;9.278;2023-09-12T12:04:37;33.80;99.90
20345;DHT22;10330;48.816;9.278;2023-09-12T12:07:03;34.30;99.90
20345;DHT22;10330;48.816;9.278;2023-09-12T12:09:30;34.30;99.90
20345;DHT22;10330;48.816;9.278;2023-09-12T12:12:02;34.60;99.90
20345;DHT22;10330;48.816;9.278;2023-09-12T12:14:33;34.30;99.90
20345;DHT22;10330;48.816;9.278;2023-09-12T12:17:07;34.20;99.90
20345;DHT22;10330;48.816;9.278;2023-09-12T12:19:35;34.30;99.90
20345;DHT22;10330;48.816;9.278;2023-09-12T12:22:04;34.70;99.90
20345;DHT22;10330;48.816;9.278;2023-09-12T12:24:40;35.20;99.90
20345;DHT22;10330;48.816;9.278;2023-09-12T12:27:06;35.20;99.90
20345;DHT22;10330;48.816;9.278;2023-09-12T12:29:36;35.00;99.90
20345;DHT22;10330;48.816;9.278;2023-09-12T12:32:03;35.30;99.90
20345;DHT22;10330;48.816;9.278;2023-09-12T12:34:31;34.90;99.90
20345;DHT22;10330;48.816;9.278;2023-09-12T12:36:57;34.90;99.60
20345;DHT22;10330;48.816;9.278;2023-09-12T12:39:24;34.90;99.90
20345;DHT22;10330;48.816;9.278;2023-09-12T12:41:54;35.30;98.90
20345;DHT22;10330;48.816;9.278;2023-09-12T12:44:21;35.10;99.40
20345;DHT22;10330;48.816;9.278;2023-09-12T12:46:52;35.10;98.50
20345;DHT22;10330;48.816;9.278;2023-09-12T12:49:19;34.80;97.90
20345;DHT22;10330;48.816;9.278;2023-09-12T12:51:46;34.40;98.50
20345;DHT22;10330;48.816;9.278;2023-09-12T12:54:13;34.10;98.30
20345;DHT22;10330;48.816;9.278;2023-09-12T12:56:40;33.70;98.50
20345;DHT22;10330;48.816;9.278;2023-09-12T12:59:07;33.30;99.60
20345;DHT22;10330;48.816;9.278;2023-09-12T13:01:36;32.90;99.90
20345;DHT22;10330;48.816;9.278;2023-09-12T13:04:08;32.90;99.90
20345;DHT22;10330;48.816;9.278;2023-09-12T13:06:34;32.90;99.90
20345;DHT22;10330;48.816;9.278;2023-09-12T13:09:03;32.70;99.90
20345;DHT22;10330;48.816;9.278;2023-09-12T13:11:31;32.60;99.90
20345;DHT22;10330;48.816;9.278;2023-09-12T13:14:02;32.50;99.90
20345;DHT22;10330;48.816;9.278;2023-09-12T13:16:34;32.30;99.90
20345;DHT22;10330;48.816;9.278;2023-09-12T13:19:03;32.10;99.90
20345;DHT22;10330;48.816;9.278;2023-09-12T13:21:30;31.80;99.90
20345;DHT22;10330;48.816;9.278;2023-09-12T13:23:58;31.80;99.90
20345;DHT22;10330;48.816;9.278;2023-09-12T13:26:24;31.50;99.90
20345;DHT22;10330;48.816;9.278;2023-09-12T13:28:50;31.40;99.90
20345;DHT22;10330;48.816;9.278;2023-09-12T13:31:17;31.30;99.90
20345;DHT22;10330;48.816;9.278;2023-09-12T13:33:43;31.20;99.90
20345;DHT22;10330;48.816;9.278;2023-09-12T13:36:09;31.40;99.90
20345;DHT22;10330;48.816;9.278;2023-09-12T13:38:36;31.50;99.90
20345;DHT22;10330;48.816;9.278;2023-09-12T13:41:02;32.00;99.90
20345;DHT22;10330;48.816;9.278;2023-09-12T13:43:30;32.20;99.90
20345;DHT22;10330;48.816;9.278;2023-09-12T13:45:56;32.50;99.90
20345;DHT22;10330;48.816;9.278;2023-09-12T13:48:25;32.50;99.90
20345;DHT22;10330;48.816;9.278;2023-09-12T13:50:53;32.50;99.90
20345;DHT22;10330;48.816;9.278;2023-09-12T13:53:19;32.50;99.90
20345;DHT22;10330;48.816;9.278;2023-09-12T13:55:46;32.40;99.90
20345;DHT22;10330;48.816;9.278;2023-09-12T13:58:14;32.40;99.90
20345;DHT22;10330;48.816;9.278;2023-09-12T14:00:41;32.50;99.90
20345;DHT22;10330;48.816;9.278;2023-09-12T14:03:07;32.50;99.90
20345;DHT22;10330;48.816;9.278;2023-09-12T14:05:33;32.70;99.90
20345;DHT22;10330;48.816;9.278;2023-09-12T14:07:59;33.20;99.90
20345;DHT22;10330;48.816;9.278;2023-09-12T14:10:25;33.50;99.90
20345;DHT22;10330;48.816;9.278;2023-09-12T14:12:52;33.80;99.70
20345;DHT22;10330;48.816;9.278;2023-09-12T14:15:18;33.60;99.90
20345;DHT22;10330;48.816;9.278;2023-09-12T14:17:45;33.40;99.90
20345;DHT22;10330;48.816;9.278;2023-09-12T14:20:11;33.70;99.90
20345;DHT22;10330;48.816;9.278;2023-09-12T14:22:42;33.70;99.90
20345;DHT22;10330;48.816;9.278;2023-09-12T14:25:10;34.00;99.90
20345;DHT22;10330;48.816;9.278;2023-09-12T14:27:44;34.10;99.90
20345;DHT22;10330;48.816;9.278;2023-09-12T14:30:11;33.90;99.60
20345;DHT22;10330;48.816;9.278;2023-09-12T14:32:39;33.80;99.90
20345;DHT22;10330;48.816;9.278;2023-09-12T14:35:09;33.50;99.90
20345;DHT22;10330;48.816;9.278;2023-09-12T14:37:35;32.90;99.90
20345;DHT22;10330;48.816;9.278;2023-09-12T14:40:04;32.50;99.90
20345;DHT22;10330;48.816;9.278;2023-09-12T14:42:30;32.20;99.90
20345;DHT22;10330;48.816;9.278;2023-09-12T14:44:57;32.00;99.90
20345;DHT22;10330;48.816;9.278;2023-09-12T14:47:23;31.70;99.90
20345;DHT22;10330;48.816;9.278;2023-09-12T14:49:52;31.40;99.90
20345;DHT22;10330;48.816;9.278;2023-09-12T14:52:22;31.00;99.90
20345;DHT22;10330;48.816;9.278;2023-09-12T14:54:51;30.80;99.90
20345;DHT22;10330;48.816;9.278;2023-09-12T14:57:17;30.70;99.90
20345;DHT22;10330;48.816;9.278;2023-09-12T14:59:43;30.50;99.90
20345;DHT22;10330;48.816;9.278;2023-09-12T15:02:10;30.30;99.90
20345;DHT22;10330;48.816;9.278;2023-09-12T15:04:36;30.20;99.90
20345;DHT22;10330;48.816;9.278;2023-09-12T15:07:03;30.10;99.90
20345;DHT22;10330;48.816;9.278;2023-09-12T15:09:29;30.10;99.90
20345;DHT22;10330;48.816;9.278;2023-09-12T15:11:56;30.10;99.90
20345;DHT22;10330;48.816;9.278;2023-09-12T15:14:22;30.10;99.90
20345;DHT22;10330;48.816;9.278;2023-09-12T15:16:48;30.10;99.90
20345;DHT22;10330;48.816;9.278;2023-09-12T15:19:18;30.10;99.90
20345;DHT22;10330;48.816;9.278;2023-09-12T15:21:53;30.00;99.90
20345;DHT22;10330;48.816;9.278;2023-09-12T15:24:20;30.00;99.90
20345;DHT22;10330;48.816;9.278;2023-09-12T15:26:46;30.00;99.90
20345;DHT22;10330;48.816;9.278;2023-09-12T15:29:12;30.00;99.90
20345;DHT22;10330;48.816;9.278;2023-09-12T15:31:38;29.80;99.90
20345;DHT22;10330;48.816;9.278;2023-09-12T15:34:05;29.80;99.90
20345;DHT22;10330;48.816;9.278;2023-09-12T15:36:41;29.70;99.90
20345;DHT22;10330;48.816;9.278;2023-09-12T15:39:08;29.50;99.90
20345;DHT22;10330;48.816;9.278;2023-09-12T15:41:36;29.50;99.90
20345;DHT22;10330;48.816;9.278;2023-09-12T15:44:02;29.40;99.90
20345;DHT22;10330;48.816;9.278;2023-09-12T15:46:29;29.40;99.90
20345;DHT22;10330;48.816;9.278;2023-09-12T15:48:55;29.40;99.90